Kuala Lumpur International Airport
WMKK : now visible

Airfield :











YOU CAN JOIN US ON...

 
LOGIN :

Register | Disclaimer

   EN    FR    IT 

 









Legend :    VFR   Marginal VFR   IFR   Intensive IFR   Very Intensive IFR
Visi :
Ceiling :
>= 8 km
>= 3000ft
5 to 8 km
1000 to 3000 ft
1500m to 5 km
500 to 1000 ft
800 to 1500m
200 to 500 ft
< 800m
< 200 ft
Symbols :   Thunderstorms  Fog  Heavy snow  Heavy precipitations  Wind > 20 kt






- Airport Elevation : 69 ft
- IATA code : KUL


WMKK - Kuala Lumpur International

CURRENT METAR :
  • 180730Z 11006KT 060V170 9999 -RA FEW008 SCT030 25/23 Q1012 NOSIG

EXPIRED METARs :
  • 180700Z 11007KT 050V170 9999 -RA FEW008 SCT030 26/23 Q1012 NOSIG
  • 180630Z 12005KT 060V160 9000 -RA FEW008 SCT030 25/24 Q1013 NOSIG
  • 180600Z 14003KT 100V190 7000 -RA FEW006 SCT030 25/24 Q1013 NOSIG
  • 180530Z 09005KT 040V150 5000 -RA FEW006 SCT028 25/24 Q1013 NOSIG
  • 180500Z 10007KT 040V150 7000 -RA FEW008 SCT030 26/24 Q1014 TEMPO 5000 RA

TAF TAF WMKK
Valid from the 18 at 06:00 until the 19 at 12:00 UTC


180500Z 1806/1912 VRB03KT 9999 FEW017CB
TEMPO 1806/1810 23010KT 3000 TSRA FEW008 FEW016CB SCT020
PROB30
TEMPO 1907/1911 4000 TSRA FEW010 FEW016CB SCT018



MET'MAP, your aeronautical weather chart ! - Copyright ORBIFLY December 2007 - Disclaimer

ORBIFLY MET'MAP TEAM :

Programming & Development : Alexandra Zaïnal
Concept & original design : Baudouin d'Aumeries
Assistance for programming : Marc-Olivier Méhu
Technical & hardware support : Manuel Goepfert

Contact : metmap@orbifly.com




SOURCES & CREDITS :

   NOAA       Earth
Advisory